sensor_id;sensor_type;location;lat;lon;timestamp;P1;durP1;ratioP1;P2;durP2;ratioP2
57303;SDS011;43150;50.986;18.208;2023-04-06T00:01:39;33.90;;;18.80;;
57303;SDS011;43150;50.986;18.208;2023-04-06T00:04:05;32.50;;;18.70;;
57303;SDS011;43150;50.986;18.208;2023-04-06T00:06:31;29.50;;;16.30;;
57303;SDS011;43150;50.986;18.208;2023-04-06T00:08:57;30.70;;;16.80;;
57303;SDS011;43150;50.986;18.208;2023-04-06T00:11:23;30.80;;;16.60;;
57303;SDS011;43150;50.986;18.208;2023-04-06T00:13:50;29.70;;;16.70;;
57303;SDS011;43150;50.986;18.208;2023-04-06T00:16:15;28.20;;;16.30;;
57303;SDS011;43150;50.986;18.208;2023-04-06T00:18:41;24.90;;;13.00;;
57303;SDS011;43150;50.986;18.208;2023-04-06T00:21:06;28.10;;;16.00;;
57303;SDS011;43150;50.986;18.208;2023-04-06T00:23:32;26.80;;;14.70;;
57303;SDS011;43150;50.986;18.208;2023-04-06T00:25:57;32.40;;;16.00;;
57303;SDS011;43150;50.986;18.208;2023-04-06T00:28:23;34.60;;;18.90;;
57303;SDS011;43150;50.986;18.208;2023-04-06T00:30:54;31.40;;;16.50;;
57303;SDS011;43150;50.986;18.208;2023-04-06T00:33:20;27.00;;;15.60;;
57303;SDS011;43150;50.986;18.208;2023-04-06T00:35:46;25.40;;;15.10;;
57303;SDS011;43150;50.986;18.208;2023-04-06T00:38:12;30.90;;;15.90;;
57303;SDS011;43150;50.986;18.208;2023-04-06T00:40:38;33.80;;;18.50;;
57303;SDS011;43150;50.986;18.208;2023-04-06T00:43:06;35.40;;;19.30;;
57303;SDS011;43150;50.986;18.208;2023-04-06T00:45:32;41.40;;;20.40;;
57303;SDS011;43150;50.986;18.208;2023-04-06T00:47:58;32.10;;;16.60;;
57303;SDS011;43150;50.986;18.208;2023-04-06T00:50:23;31.30;;;16.50;;
57303;SDS011;43150;50.986;18.208;2023-04-06T00:52:50;32.30;;;16.00;;
57303;SDS011;43150;50.986;18.208;2023-04-06T00:55:17;35.70;;;17.70;;
57303;SDS011;43150;50.986;18.208;2023-04-06T00:57:43;28.00;;;16.10;;
57303;SDS011;43150;50.986;18.208;2023-04-06T01:00:09;29.50;;;15.80;;
57303;SDS011;43150;50.986;18.208;2023-04-06T01:02:35;31.60;;;17.20;;
57303;SDS011;43150;50.986;18.208;2023-04-06T01:05:01;36.30;;;18.60;;
57303;SDS011;43150;50.986;18.208;2023-04-06T01:07:27;41.90;;;21.20;;
57303;SDS011;43150;50.986;18.208;2023-04-06T01:09:53;61.20;;;26.30;;
57303;SDS011;43150;50.986;18.208;2023-04-06T01:12:19;94.40;;;29.30;;
57303;SDS011;43150;50.986;18.208;2023-04-06T01:14:44;39.00;;;17.30;;
57303;SDS011;43150;50.986;18.208;2023-04-06T01:17:14;37.50;;;20.10;;
57303;SDS011;43150;50.986;18.208;2023-04-06T01:19:40;26.40;;;14.10;;
57303;SDS011;43150;50.986;18.208;2023-04-06T01:22:17;35.00;;;19.80;;
57303;SDS011;43150;50.986;18.208;2023-04-06T01:24:43;39.50;;;18.90;;
57303;SDS011;43150;50.986;18.208;2023-04-06T01:27:09;38.20;;;20.90;;
57303;SDS011;43150;50.986;18.208;2023-04-06T01:29:34;41.10;;;23.30;;
57303;SDS011;43150;50.986;18.208;2023-04-06T01:32:00;31.80;;;18.50;;
57303;SDS011;43150;50.986;18.208;2023-04-06T01:34:26;29.20;;;17.00;;
57303;SDS011;43150;50.986;18.208;2023-04-06T01:36:51;35.00;;;17.20;;
57303;SDS011;43150;50.986;18.208;2023-04-06T01:39:17;32.20;;;17.80;;
57303;SDS011;43150;50.986;18.208;2023-04-06T01:41:43;38.40;;;19.20;;
57303;SDS011;43150;50.986;18.208;2023-04-06T01:44:08;35.30;;;18.30;;
57303;SDS011;43150;50.986;18.208;2023-04-06T01:46:34;30.70;;;17.70;;
57303;SDS011;43150;50.986;18.208;2023-04-06T01:48:59;37.70;;;20.50;;
57303;SDS011;43150;50.986;18.208;2023-04-06T01:51:25;38.50;;;23.50;;
57303;SDS011;43150;50.986;18.208;2023-04-06T01:53:51;37.50;;;21.00;;
57303;SDS011;43150;50.986;18.208;2023-04-06T01:56:17;37.70;;;21.20;;
57303;SDS011;43150;50.986;18.208;2023-04-06T01:58:43;36.40;;;20.40;;
57303;SDS011;43150;50.986;18.208;2023-04-06T02:01:08;39.60;;;20.40;;
57303;SDS011;43150;50.986;18.208;2023-04-06T02:03:34;35.30;;;21.20;;
57303;SDS011;43150;50.986;18.208;2023-04-06T02:06:00;36.20;;;20.30;;
57303;SDS011;43150;50.986;18.208;2023-04-06T02:08:26;40.70;;;22.40;;
57303;SDS011;43150;50.986;18.208;2023-04-06T02:10:52;41.50;;;23.00;;
57303;SDS011;43150;50.986;18.208;2023-04-06T02:13:17;38.20;;;21.20;;
57303;SDS011;43150;50.986;18.208;2023-04-06T02:15:43;32.40;;;19.00;;
57303;SDS011;43150;50.986;18.208;2023-04-06T02:18:11;32.00;;;17.00;;
57303;SDS011;43150;50.986;18.208;2023-04-06T02:20:36;39.10;;;22.30;;
57303;SDS011;43150;50.986;18.208;2023-04-06T02:23:02;40.00;;;21.10;;
57303;SDS011;43150;50.986;18.208;2023-04-06T02:25:27;38.20;;;22.30;;
57303;SDS011;43150;50.986;18.208;2023-04-06T02:27:53;34.20;;;19.70;;
57303;SDS011;43150;50.986;18.208;2023-04-06T02:30:19;30.40;;;18.70;;
57303;SDS011;43150;50.986;18.208;2023-04-06T02:32:45;36.70;;;21.20;;
57303;SDS011;43150;50.986;18.208;2023-04-06T02:35:15;39.00;;;21.30;;
57303;SDS011;43150;50.986;18.208;2023-04-06T02:37:42;38.20;;;22.10;;
57303;SDS011;43150;50.986;18.208;2023-04-06T02:40:07;37.00;;;20.60;;
57303;SDS011;43150;50.986;18.208;2023-04-06T02:42:33;35.10;;;19.40;;
57303;SDS011;43150;50.986;18.208;2023-04-06T02:45:00;38.80;;;20.80;;
57303;SDS011;43150;50.986;18.208;2023-04-06T02:47:26;34.20;;;18.00;;
57303;SDS011;43150;50.986;18.208;2023-04-06T02:49:53;32.80;;;19.30;;
57303;SDS011;43150;50.986;18.208;2023-04-06T02:52:20;31.40;;;18.60;;
57303;SDS011;43150;50.986;18.208;2023-04-06T02:54:45;35.70;;;21.20;;
57303;SDS011;43150;50.986;18.208;2023-04-06T02:57:11;33.10;;;18.30;;
57303;SDS011;43150;50.986;18.208;2023-04-06T02:59:36;28.70;;;17.20;;
57303;SDS011;43150;50.986;18.208;2023-04-06T03:02:02;34.50;;;21.40;;
57303;SDS011;43150;50.986;18.208;2023-04-06T03:04:28;35.10;;;20.00;;
57303;SDS011;43150;50.986;18.208;2023-04-06T03:06:53;32.90;;;17.70;;
57303;SDS011;43150;50.986;18.208;2023-04-06T03:09:19;46.90;;;24.70;;
57303;SDS011;43150;50.986;18.208;2023-04-06T03:11:45;37.70;;;18.90;;
57303;SDS011;43150;50.986;18.208;2023-04-06T03:14:10;37.10;;;21.00;;
57303;SDS011;43150;50.986;18.208;2023-04-06T03:16:39;31.40;;;18.00;;
57303;SDS011;43150;50.986;18.208;2023-04-06T03:19:04;32.40;;;19.80;;
57303;SDS011;43150;50.986;18.208;2023-04-06T03:21:30;40.70;;;21.60;;
57303;SDS011;43150;50.986;18.208;2023-04-06T03:23:56;38.20;;;24.40;;
57303;SDS011;43150;50.986;18.208;2023-04-06T03:26:22;24.90;;;15.40;;
57303;SDS011;43150;50.986;18.208;2023-04-06T03:28:47;34.00;;;20.80;;
57303;SDS011;43150;50.986;18.208;2023-04-06T03:31:16;32.20;;;19.80;;
57303;SDS011;43150;50.986;18.208;2023-04-06T03:33:42;32.00;;;18.10;;
57303;SDS011;43150;50.986;18.208;2023-04-06T03:36:08;36.70;;;19.40;;
57303;SDS011;43150;50.986;18.208;2023-04-06T03:38:34;33.00;;;17.60;;
57303;SDS011;43150;50.986;18.208;2023-04-06T03:40:59;31.80;;;18.50;;
57303;SDS011;43150;50.986;18.208;2023-04-06T03:43:25;31.40;;;20.20;;
57303;SDS011;43150;50.986;18.208;2023-04-06T03:45:52;37.30;;;18.80;;
57303;SDS011;43150;50.986;18.208;2023-04-06T03:48:17;33.50;;;16.00;;
57303;SDS011;43150;50.986;18.208;2023-04-06T03:50:44;26.80;;;15.40;;
57303;SDS011;43150;50.986;18.208;2023-04-06T03:53:10;38.00;;;19.50;;
57303;SDS011;43150;50.986;18.208;2023-04-06T03:55:38;33.30;;;18.20;;
57303;SDS011;43150;50.986;18.208;2023-04-06T03:58:03;29.70;;;17.80;;
57303;SDS011;43150;50.986;18.208;2023-04-06T04:00:29;31.00;;;17.70;;
57303;SDS011;43150;50.986;18.208;2023-04-06T04:02:55;33.90;;;19.10;;
57303;SDS011;43150;50.986;18.208;2023-04-06T04:05:20;44.00;;;23.10;;
57303;SDS011;43150;50.986;18.208;2023-04-06T04:07:51;37.80;;;22.20;;
57303;SDS011;43150;50.986;18.208;2023-04-06T04:10:17;42.80;;;23.80;;
57303;SDS011;43150;50.986;18.208;2023-04-06T04:12:43;40.80;;;22.40;;
57303;SDS011;43150;50.986;18.208;2023-04-06T04:15:09;40.20;;;23.00;;
57303;SDS011;43150;50.986;18.208;2023-04-06T04:17:34;42.70;;;23.70;;
57303;SDS011;43150;50.986;18.208;2023-04-06T04:20:01;38.40;;;22.80;;
57303;SDS011;43150;50.986;18.208;2023-04-06T04:22:26;39.40;;;22.00;;
57303;SDS011;43150;50.986;18.208;2023-04-06T04:24:53;41.70;;;22.10;;
57303;SDS011;43150;50.986;18.208;2023-04-06T04:27:20;38.80;;;22.40;;
57303;SDS011;43150;50.986;18.208;2023-04-06T04:29:49;35.00;;;18.30;;
57303;SDS011;43150;50.986;18.208;2023-04-06T04:32:15;36.40;;;20.90;;
57303;SDS011;43150;50.986;18.208;2023-04-06T04:34:42;41.60;;;24.20;;
57303;SDS011;43150;50.986;18.208;2023-04-06T04:37:07;51.40;;;26.10;;
57303;SDS011;43150;50.986;18.208;2023-04-06T04:39:33;36.40;;;21.30;;
57303;SDS011;43150;50.986;18.208;2023-04-06T04:41:58;59.50;;;26.10;;
57303;SDS011;43150;50.986;18.208;2023-04-06T04:44:24;43.50;;;25.20;;
57303;SDS011;43150;50.986;18.208;2023-04-06T04:46:50;51.00;;;25.30;;
57303;SDS011;43150;50.986;18.208;2023-04-06T04:49:15;42.80;;;22.70;;
57303;SDS011;43150;50.986;18.208;2023-04-06T04:51:41;43.60;;;24.40;;
57303;SDS011;43150;50.986;18.208;2023-04-06T04:54:07;45.90;;;22.00;;
57303;SDS011;43150;50.986;18.208;2023-04-06T04:56:32;44.70;;;24.00;;
57303;SDS011;43150;50.986;18.208;2023-04-06T04:58:58;46.20;;;22.80;;
57303;SDS011;43150;50.986;18.208;2023-04-06T05:01:23;40.00;;;22.10;;
57303;SDS011;43150;50.986;18.208;2023-04-06T05:03:49;39.70;;;21.20;;
57303;SDS011;43150;50.986;18.208;2023-04-06T05:06:15;42.40;;;22.30;;
57303;SDS011;43150;50.986;18.208;2023-04-06T05:08:43;38.70;;;20.60;;
57303;SDS011;43150;50.986;18.208;2023-04-06T05:11:09;26.90;;;15.40;;
57303;SDS011;43150;50.986;18.208;2023-04-06T05:13:34;28.70;;;17.00;;
57303;SDS011;43150;50.986;18.208;2023-04-06T05:16:01;34.40;;;18.80;;
57303;SDS011;43150;50.986;18.208;2023-04-06T05:18:27;31.50;;;15.10;;
57303;SDS011;43150;50.986;18.208;2023-04-06T05:20:53;30.30;;;15.10;;
57303;SDS011;43150;50.986;18.208;2023-04-06T05:23:19;25.90;;;14.40;;
57303;SDS011;43150;50.986;18.208;2023-04-06T05:25:45;21.20;;;11.60;;
57303;SDS011;43150;50.986;18.208;2023-04-06T05:28:11;34.70;;;20.40;;
57303;SDS011;43150;50.986;18.208;2023-04-06T05:30:39;24.60;;;13.50;;
57303;SDS011;43150;50.986;18.208;2023-04-06T05:33:05;30.60;;;17.80;;
57303;SDS011;43150;50.986;18.208;2023-04-06T05:35:30;26.80;;;16.00;;
57303;SDS011;43150;50.986;18.208;2023-04-06T05:37:56;33.80;;;19.80;;
57303;SDS011;43150;50.986;18.208;2023-04-06T05:40:21;28.50;;;19.00;;
57303;SDS011;43150;50.986;18.208;2023-04-06T05:42:47;38.50;;;21.30;;
57303;SDS011;43150;50.986;18.208;2023-04-06T05:45:14;36.00;;;20.30;;
57303;SDS011;43150;50.986;18.208;2023-04-06T05:47:44;29.60;;;19.80;;
57303;SDS011;43150;50.986;18.208;2023-04-06T05:50:12;30.70;;;18.40;;
57303;SDS011;43150;50.986;18.208;2023-04-06T05:52:37;29.80;;;19.10;;
57303;SDS011;43150;50.986;18.208;2023-04-06T05:55:03;29.10;;;20.00;;
57303;SDS011;43150;50.986;18.208;2023-04-06T05:57:29;27.70;;;18.10;;
57303;SDS011;43150;50.986;18.208;2023-04-06T05:59:55;24.90;;;16.50;;
57303;SDS011;43150;50.986;18.208;2023-04-06T06:02:21;29.00;;;19.20;;
57303;SDS011;43150;50.986;18.208;2023-04-06T06:04:47;33.20;;;19.10;;
57303;SDS011;43150;50.986;18.208;2023-04-06T06:07:13;34.60;;;20.70;;
57303;SDS011;43150;50.986;18.208;2023-04-06T06:09:39;38.20;;;23.20;;
57303;SDS011;43150;50.986;18.208;2023-04-06T06:12:05;38.50;;;23.20;;
57303;SDS011;43150;50.986;18.208;2023-04-06T06:14:30;43.10;;;24.30;;
57303;SDS011;43150;50.986;18.208;2023-04-06T06:16:56;37.70;;;29.70;;
57303;SDS011;43150;50.986;18.208;2023-04-06T06:19:22;37.20;;;28.30;;
57303;SDS011;43150;50.986;18.208;2023-04-06T06:21:47;36.30;;;27.30;;
57303;SDS011;43150;50.986;18.208;2023-04-06T06:24:12;32.20;;;18.40;;
57303;SDS011;43150;50.986;18.208;2023-04-06T06:26:38;31.90;;;24.80;;
57303;SDS011;43150;50.986;18.208;2023-04-06T06:29:05;30.30;;;24.90;;
57303;SDS011;43150;50.986;18.208;2023-04-06T06:31:31;28.40;;;25.00;;
57303;SDS011;43150;50.986;18.208;2023-04-06T06:33:56;30.40;;;24.20;;
57303;SDS011;43150;50.986;18.208;2023-04-06T06:36:22;28.00;;;23.50;;
57303;SDS011;43150;50.986;18.208;2023-04-06T06:38:47;30.80;;;23.10;;
57303;SDS011;43150;50.986;18.208;2023-04-06T06:41:21;34.40;;;24.80;;
57303;SDS011;43150;50.986;18.208;2023-04-06T06:43:46;39.80;;;27.50;;
57303;SDS011;43150;50.986;18.208;2023-04-06T06:46:26;36.80;;;26.70;;
57303;SDS011;43150;50.986;18.208;2023-04-06T06:48:53;38.10;;;30.50;;
57303;SDS011;43150;50.986;18.208;2023-04-06T06:51:19;40.20;;;30.60;;
57303;SDS011;43150;50.986;18.208;2023-04-06T06:53:44;35.70;;;28.50;;
57303;SDS011;43150;50.986;18.208;2023-04-06T06:56:10;36.60;;;30.00;;
57303;SDS011;43150;50.986;18.208;2023-04-06T06:58:36;27.40;;;22.90;;
57303;SDS011;43150;50.986;18.208;2023-04-06T07:01:01;29.50;;;22.90;;
57303;SDS011;43150;50.986;18.208;2023-04-06T07:03:27;28.60;;;23.70;;
57303;SDS011;43150;50.986;18.208;2023-04-06T07:05:52;27.90;;;24.90;;
57303;SDS011;43150;50.986;18.208;2023-04-06T07:08:19;28.00;;;21.90;;
57303;SDS011;43150;50.986;18.208;2023-04-06T07:10:44;31.20;;;24.80;;
57303;SDS011;43150;50.986;18.208;2023-04-06T07:13:10;31.50;;;24.30;;
57303;SDS011;43150;50.986;18.208;2023-04-06T07:15:36;27.10;;;24.00;;
57303;SDS011;43150;50.986;18.208;2023-04-06T07:18:02;33.70;;;28.90;;
57303;SDS011;43150;50.986;18.208;2023-04-06T07:20:27;30.20;;;26.50;;
57303;SDS011;43150;50.986;18.208;2023-04-06T07:22:53;28.80;;;25.40;;
57303;SDS011;43150;50.986;18.208;2023-04-06T07:25:22;34.30;;;26.60;;
57303;SDS011;43150;50.986;18.208;2023-04-06T07:27:51;29.10;;;24.30;;
57303;SDS011;43150;50.986;18.208;2023-04-06T07:30:16;32.30;;;26.40;;
57303;SDS011;43150;50.986;18.208;2023-04-06T07:32:43;34.70;;;29.50;;
57303;SDS011;43150;50.986;18.208;2023-04-06T07:35:08;35.00;;;28.00;;
57303;SDS011;43150;50.986;18.208;2023-04-06T07:37:34;31.00;;;26.20;;
57303;SDS011;43150;50.986;18.208;2023-04-06T07:40:00;27.70;;;24.70;;
57303;SDS011;43150;50.986;18.208;2023-04-06T07:42:28;29.30;;;25.30;;
57303;SDS011;43150;50.986;18.208;2023-04-06T07:44:54;28.20;;;21.70;;
57303;SDS011;43150;50.986;18.208;2023-04-06T07:47:19;27.80;;;22.90;;
57303;SDS011;43150;50.986;18.208;2023-04-06T07:49:48;23.00;;;17.60;;
57303;SDS011;43150;50.986;18.208;2023-04-06T07:52:14;24.40;;;18.70;;
57303;SDS011;43150;50.986;18.208;2023-04-06T07:54:41;21.20;;;17.80;;
57303;SDS011;43150;50.986;18.208;2023-04-06T07:57:07;19.00;;;16.20;;
57303;SDS011;43150;50.986;18.208;2023-04-06T07:59:37;20.50;;;16.40;;
57303;SDS011;43150;50.986;18.208;2023-04-06T08:02:03;23.50;;;17.30;;
57303;SDS011;43150;50.986;18.208;2023-04-06T08:04:29;17.40;;;15.10;;
57303;SDS011;43150;50.986;18.208;2023-04-06T08:06:54;18.30;;;15.20;;
57303;SDS011;43150;50.986;18.208;2023-04-06T08:09:20;16.40;;;14.20;;
57303;SDS011;43150;50.986;18.208;2023-04-06T08:11:46;21.20;;;15.00;;
57303;SDS011;43150;50.986;18.208;2023-04-06T08:14:15;17.10;;;13.80;;
57303;SDS011;43150;50.986;18.208;2023-04-06T08:16:48;15.60;;;13.90;;
57303;SDS011;43150;50.986;18.208;2023-04-06T08:19:14;15.50;;;13.80;;
57303;SDS011;43150;50.986;18.208;2023-04-06T08:21:42;14.00;;;11.50;;
57303;SDS011;43150;50.986;18.208;2023-04-06T08:24:08;11.80;;;10.00;;
57303;SDS011;43150;50.986;18.208;2023-04-06T08:26:34;10.90;;;8.40;;
57303;SDS011;43150;50.986;18.208;2023-04-06T08:29:00;11.90;;;9.90;;
57303;SDS011;43150;50.986;18.208;2023-04-06T08:31:25;14.30;;;11.30;;
57303;SDS011;43150;50.986;18.208;2023-04-06T08:33:54;11.50;;;10.00;;
57303;SDS011;43150;50.986;18.208;2023-04-06T08:36:20;16.10;;;11.20;;
57303;SDS011;43150;50.986;18.208;2023-04-06T08:38:48;11.70;;;9.30;;
57303;SDS011;43150;50.986;18.208;2023-04-06T08:41:15;12.40;;;10.80;;
57303;SDS011;43150;50.986;18.208;2023-04-06T08:43:47;13.80;;;11.40;;
57303;SDS011;43150;50.986;18.208;2023-04-06T08:46:13;11.20;;;9.50;;
57303;SDS011;43150;50.986;18.208;2023-04-06T08:48:40;9.40;;;8.10;;
57303;SDS011;43150;50.986;18.208;2023-04-06T08:51:06;9.60;;;8.00;;
57303;SDS011;43150;50.986;18.208;2023-04-06T08:53:32;8.50;;;7.30;;
57303;SDS011;43150;50.986;18.208;2023-04-06T08:55:58;11.40;;;8.60;;
57303;SDS011;43150;50.986;18.208;2023-04-06T08:58:23;11.20;;;8.60;;
57303;SDS011;43150;50.986;18.208;2023-04-06T09:00:49;14.40;;;9.40;;
57303;SDS011;43150;50.986;18.208;2023-04-06T09:03:16;10.50;;;9.10;;
57303;SDS011;43150;50.986;18.208;2023-04-06T09:05:42;11.20;;;9.30;;
57303;SDS011;43150;50.986;18.208;2023-04-06T09:08:08;13.80;;;9.70;;
57303;SDS011;43150;50.986;18.208;2023-04-06T09:10:34;9.90;;;8.90;;
57303;SDS011;43150;50.986;18.208;2023-04-06T09:13:06;11.50;;;9.00;;
57303;SDS011;43150;50.986;18.208;2023-04-06T09:15:58;14.30;;;10.30;;
57303;SDS011;43150;50.986;18.208;2023-04-06T09:18:30;8.90;;;7.20;;
57303;SDS011;43150;50.986;18.208;2023-04-06T09:23:23;9.10;;;8.00;;
57303;SDS011;43150;50.986;18.208;2023-04-06T09:25:49;10.60;;;8.50;;
57303;SDS011;43150;50.986;18.208;2023-04-06T09:28:15;12.00;;;9.00;;
57303;SDS011;43150;50.986;18.208;2023-04-06T09:30:47;11.30;;;7.80;;
57303;SDS011;43150;50.986;18.208;2023-04-06T09:33:21;8.70;;;7.10;;
57303;SDS011;43150;50.986;18.208;2023-04-06T09:35:50;8.00;;;6.10;;
57303;SDS011;43150;50.986;18.208;2023-04-06T09:38:16;9.40;;;8.10;;
57303;SDS011;43150;50.986;18.208;2023-04-06T09:40:51;7.90;;;7.10;;
57303;SDS011;43150;50.986;18.208;2023-04-06T09:43:29;7.30;;;6.00;;
57303;SDS011;43150;50.986;18.208;2023-04-06T09:45:55;7.90;;;6.70;;
57303;SDS011;43150;50.986;18.208;2023-04-06T09:48:21;7.00;;;4.50;;
57303;SDS011;43150;50.986;18.208;2023-04-06T09:50:49;8.30;;;6.10;;
57303;SDS011;43150;50.986;18.208;2023-04-06T09:53:16;7.00;;;6.30;;
57303;SDS011;43150;50.986;18.208;2023-04-06T09:55:44;7.50;;;4.40;;
57303;SDS011;43150;50.986;18.208;2023-04-06T09:58:15;8.60;;;7.10;;
57303;SDS011;43150;50.986;18.208;2023-04-06T10:05:42;9.00;;;6.40;;
57303;SDS011;43150;50.986;18.208;2023-04-06T10:08:09;8.80;;;6.80;;
57303;SDS011;43150;50.986;18.208;2023-04-06T10:10:35;6.80;;;6.10;;
57303;SDS011;43150;50.986;18.208;2023-04-06T10:13:01;8.00;;;6.20;;
57303;SDS011;43150;50.986;18.208;2023-04-06T10:15:28;8.30;;;6.30;;
57303;SDS011;43150;50.986;18.208;2023-04-06T10:17:58;7.30;;;6.50;;
57303;SDS011;43150;50.986;18.208;2023-04-06T10:20:33;7.90;;;6.00;;
57303;SDS011;43150;50.986;18.208;2023-04-06T10:25:35;6.50;;;5.40;;
57303;SDS011;43150;50.986;18.208;2023-04-06T10:28:06;7.10;;;5.50;;
57303;SDS011;43150;50.986;18.208;2023-04-06T10:30:35;7.40;;;5.90;;
57303;SDS011;43150;50.986;18.208;2023-04-06T10:33:19;8.50;;;6.70;;
57303;SDS011;43150;50.986;18.208;2023-04-06T10:35:46;7.30;;;6.30;;
57303;SDS011;43150;50.986;18.208;2023-04-06T10:38:11;6.50;;;5.90;;
57303;SDS011;43150;50.986;18.208;2023-04-06T10:40:40;8.70;;;6.60;;
57303;SDS011;43150;50.986;18.208;2023-04-06T10:43:09;13.20;;;7.80;;
57303;SDS011;43150;50.986;18.208;2023-04-06T10:45:35;8.40;;;5.60;;
57303;SDS011;43150;50.986;18.208;2023-04-06T10:48:01;8.50;;;6.80;;
57303;SDS011;43150;50.986;18.208;2023-04-06T10:50:47;6.50;;;5.80;;
57303;SDS011;43150;50.986;18.208;2023-04-06T10:53:20;6.90;;;5.80;;
57303;SDS011;43150;50.986;18.208;2023-04-06T10:55:50;6.00;;;5.40;;
57303;SDS011;43150;50.986;18.208;2023-04-06T10:58:16;7.10;;;6.30;;
57303;SDS011;43150;50.986;18.208;2023-04-06T11:00:45;7.00;;;6.20;;
57303;SDS011;43150;50.986;18.208;2023-04-06T11:03:11;6.20;;;5.60;;
57303;SDS011;43150;50.986;18.208;2023-04-06T11:05:37;6.10;;;5.50;;
57303;SDS011;43150;50.986;18.208;2023-04-06T11:08:02;6.50;;;5.40;;
57303;SDS011;43150;50.986;18.208;2023-04-06T11:10:28;9.20;;;5.80;;
57303;SDS011;43150;50.986;18.208;2023-04-06T11:12:55;6.20;;;5.10;;
57303;SDS011;43150;50.986;18.208;2023-04-06T11:15:21;6.40;;;5.20;;
57303;SDS011;43150;50.986;18.208;2023-04-06T11:17:46;7.90;;;5.70;;
57303;SDS011;43150;50.986;18.208;2023-04-06T11:20:13;6.40;;;5.50;;
57303;SDS011;43150;50.986;18.208;2023-04-06T11:22:50;6.00;;;5.40;;
57303;SDS011;43150;50.986;18.208;2023-04-06T11:25:16;6.80;;;5.50;;
57303;SDS011;43150;50.986;18.208;2023-04-06T11:27:42;6.60;;;5.80;;
57303;SDS011;43150;50.986;18.208;2023-04-06T11:30:08;9.50;;;5.90;;
57303;SDS011;43150;50.986;18.208;2023-04-06T11:32:40;7.90;;;6.00;;
57303;SDS011;43150;50.986;18.208;2023-04-06T11:35:10;8.50;;;5.90;;
57303;SDS011;43150;50.986;18.208;2023-04-06T11:37:36;8.50;;;5.70;;
57303;SDS011;43150;50.986;18.208;2023-04-06T11:40:02;6.30;;;5.20;;
57303;SDS011;43150;50.986;18.208;2023-04-06T11:42:29;7.70;;;5.70;;
57303;SDS011;43150;50.986;18.208;2023-04-06T11:44:55;6.80;;;5.70;;
57303;SDS011;43150;50.986;18.208;2023-04-06T11:47:32;7.60;;;6.60;;
57303;SDS011;43150;50.986;18.208;2023-04-06T11:50:07;7.60;;;5.90;;
57303;SDS011;43150;50.986;18.208;2023-04-06T11:52:33;6.70;;;5.60;;
57303;SDS011;43150;50.986;18.208;2023-04-06T11:54:58;6.50;;;5.80;;
57303;SDS011;43150;50.986;18.208;2023-04-06T11:57:36;8.20;;;7.20;;
57303;SDS011;43150;50.986;18.208;2023-04-06T12:00:06;7.90;;;6.60;;
57303;SDS011;43150;50.986;18.208;2023-04-06T12:02:32;8.80;;;6.80;;
57303;SDS011;43150;50.986;18.208;2023-04-06T12:04:58;9.40;;;7.00;;
57303;SDS011;43150;50.986;18.208;2023-04-06T12:07:24;8.30;;;7.00;;
57303;SDS011;43150;50.986;18.208;2023-04-06T12:09:49;8.40;;;6.90;;
57303;SDS011;43150;50.986;18.208;2023-04-06T12:12:15;12.20;;;8.40;;
57303;SDS011;43150;50.986;18.208;2023-04-06T12:14:42;10.30;;;7.70;;
57303;SDS011;43150;50.986;18.208;2023-04-06T12:17:07;7.00;;;6.30;;
57303;SDS011;43150;50.986;18.208;2023-04-06T12:19:33;9.00;;;7.00;;
57303;SDS011;43150;50.986;18.208;2023-04-06T12:22:04;8.70;;;7.00;;
57303;SDS011;43150;50.986;18.208;2023-04-06T12:24:29;10.50;;;6.90;;
57303;SDS011;43150;50.986;18.208;2023-04-06T12:26:56;9.30;;;6.90;;
57303;SDS011;43150;50.986;18.208;2023-04-06T12:29:25;8.00;;;6.50;;
57303;SDS011;43150;50.986;18.208;2023-04-06T12:31:50;8.70;;;7.30;;
57303;SDS011;43150;50.986;18.208;2023-04-06T12:34:16;8.60;;;7.00;;
57303;SDS011;43150;50.986;18.208;2023-04-06T12:36:43;9.60;;;7.10;;
57303;SDS011;43150;50.986;18.208;2023-04-06T12:39:09;10.80;;;7.50;;
57303;SDS011;43150;50.986;18.208;2023-04-06T12:41:34;7.70;;;6.80;;
57303;SDS011;43150;50.986;18.208;2023-04-06T12:44:00;8.70;;;6.70;;
57303;SDS011;43150;50.986;18.208;2023-04-06T12:46:27;11.30;;;8.80;;
57303;SDS011;43150;50.986;18.208;2023-04-06T12:48:56;7.60;;;6.80;;
57303;SDS011;43150;50.986;18.208;2023-04-06T12:51:22;8.50;;;6.80;;
57303;SDS011;43150;50.986;18.208;2023-04-06T12:53:48;9.10;;;7.30;;
57303;SDS011;43150;50.986;18.208;2023-04-06T12:56:17;9.20;;;6.80;;
57303;SDS011;43150;50.986;18.208;2023-04-06T12:58:43;10.00;;;8.10;;
57303;SDS011;43150;50.986;18.208;2023-04-06T13:01:09;9.30;;;7.30;;
57303;SDS011;43150;50.986;18.208;2023-04-06T13:03:36;9.40;;;8.10;;
57303;SDS011;43150;50.986;18.208;2023-04-06T13:06:02;9.50;;;7.10;;
57303;SDS011;43150;50.986;18.208;2023-04-06T13:08:28;9.40;;;8.30;;
57303;SDS011;43150;50.986;18.208;2023-04-06T13:10:53;10.20;;;7.90;;
57303;SDS011;43150;50.986;18.208;2023-04-06T13:13:22;9.20;;;7.80;;
57303;SDS011;43150;50.986;18.208;2023-04-06T13:15:49;8.40;;;7.10;;
57303;SDS011;43150;50.986;18.208;2023-04-06T13:18:15;11.20;;;6.90;;
57303;SDS011;43150;50.986;18.208;2023-04-06T13:20:41;8.30;;;7.50;;
57303;SDS011;43150;50.986;18.208;2023-04-06T13:23:07;10.60;;;8.50;;
57303;SDS011;43150;50.986;18.208;2023-04-06T13:25:37;10.40;;;8.40;;
57303;SDS011;43150;50.986;18.208;2023-04-06T13:28:03;10.60;;;8.50;;
57303;SDS011;43150;50.986;18.208;2023-04-06T13:30:28;14.10;;;8.70;;
57303;SDS011;43150;50.986;18.208;2023-04-06T13:32:54;10.50;;;8.70;;
57303;SDS011;43150;50.986;18.208;2023-04-06T13:35:20;11.40;;;8.90;;
57303;SDS011;43150;50.986;18.208;2023-04-06T13:37:45;10.10;;;8.20;;
57303;SDS011;43150;50.986;18.208;2023-04-06T13:40:11;11.00;;;8.80;;
57303;SDS011;43150;50.986;18.208;2023-04-06T13:42:37;9.80;;;8.00;;
57303;SDS011;43150;50.986;18.208;2023-04-06T13:45:05;11.00;;;8.70;;
57303;SDS011;43150;50.986;18.208;2023-04-06T13:47:31;9.30;;;8.20;;
57303;SDS011;43150;50.986;18.208;2023-04-06T13:49:56;9.80;;;8.70;;
57303;SDS011;43150;50.986;18.208;2023-04-06T13:52:22;10.90;;;8.80;;
57303;SDS011;43150;50.986;18.208;2023-04-06T13:54:48;11.10;;;9.50;;
57303;SDS011;43150;50.986;18.208;2023-04-06T13:57:14;9.50;;;8.50;;
57303;SDS011;43150;50.986;18.208;2023-04-06T13:59:39;11.60;;;9.40;;
57303;SDS011;43150;50.986;18.208;2023-04-06T14:02:06;10.20;;;9.10;;
57303;SDS011;43150;50.986;18.208;2023-04-06T14:04:32;9.60;;;8.40;;
57303;SDS011;43150;50.986;18.208;2023-04-06T14:06:59;11.30;;;8.70;;
57303;SDS011;43150;50.986;18.208;2023-04-06T14:09:24;10.90;;;6.90;;
57303;SDS011;43150;50.986;18.208;2023-04-06T14:11:50;10.70;;;7.40;;
57303;SDS011;43150;50.986;18.208;2023-04-06T14:14:17;9.80;;;7.10;;
57303;SDS011;43150;50.986;18.208;2023-04-06T14:16:43;8.30;;;6.70;;
57303;SDS011;43150;50.986;18.208;2023-04-06T14:19:10;9.90;;;6.20;;
57303;SDS011;43150;50.986;18.208;2023-04-06T14:21:37;10.00;;;7.20;;
57303;SDS011;43150;50.986;18.208;2023-04-06T14:24:05;10.00;;;7.40;;